createdAt,value
2023-04-30T06:20:04.404Z,96911.41
2023-04-30T06:22:18.806Z,96894.06
2023-04-30T06:24:30.812Z,96896.47
2023-04-30T06:26:46.518Z,96896.78
2023-04-30T06:29:01.635Z,96901.09
2023-04-30T06:31:22.784Z,96892.22
2023-04-30T06:33:47.421Z,96890.50
2023-04-30T06:36:07.861Z,96900.91
2023-04-30T06:37:09.303Z,96905.66
2023-04-30T06:38:10.785Z,96902.13
2023-04-30T06:39:15.429Z,96893.31
2023-04-30T06:40:17.008Z,96887.75
2023-04-30T06:41:19.280Z,96897.88
2023-04-30T06:42:20.771Z,96890.63
2023-04-30T06:43:22.103Z,96887.72
2023-04-30T06:44:23.843Z,96898.00
2023-04-30T06:45:25.233Z,96893.59
2023-04-30T06:47:36.315Z,96880.06
2023-04-30T06:49:53.236Z,96900.38
2023-04-30T06:52:06.929Z,96899.97
2023-04-30T06:53:08.291Z,96903.97
2023-04-30T06:54:09.874Z,96907.13
2023-04-30T06:56:21.317Z,96911.28
2023-04-30T06:57:22.673Z,96904.84
2023-04-30T06:58:24.167Z,96905.94
2023-04-30T06:59:25.753Z,96899.44
2023-04-30T07:00:27.371Z,96903.13
2023-04-30T07:01:28.974Z,96912.91
2023-04-30T07:02:30.485Z,96902.47
2023-04-30T07:03:33.807Z,96903.00
2023-04-30T07:04:35.403Z,96901.53
2023-04-30T07:05:36.938Z,96914.41
2023-04-30T07:06:38.401Z,96894.91
2023-04-30T07:07:39.821Z,96903.13
2023-04-30T07:08:41.553Z,96889.66
2023-04-30T07:09:42.918Z,96898.41
2023-04-30T07:10:44.315Z,96904.47
2023-04-30T07:11:45.703Z,96886.94
2023-04-30T07:12:47.121Z,96904.19
2023-04-30T07:13:48.492Z,96902.47
2023-04-30T07:14:49.993Z,96899.47
2023-04-30T07:15:51.794Z,96900.44
2023-04-30T07:16:53.374Z,96880.09
2023-04-30T07:17:55.310Z,96898.78
2023-04-30T07:18:56.769Z,96891.81
2023-04-30T07:19:58.257Z,96899.78
2023-04-30T07:20:59.665Z,96890.69
2023-04-30T07:22:01.221Z,96904.84
2023-04-30T07:23:02.708Z,96900.78
2023-04-30T07:24:04.316Z,96896.84
2023-04-30T07:25:06.260Z,96898.25
2023-04-30T07:26:07.686Z,96893.47
2023-04-30T07:27:09.092Z,96897.22
2023-04-30T07:28:10.958Z,96896.44
2023-04-30T07:29:12.546Z,96882.09
2023-04-30T07:30:13.939Z,96897.53
2023-04-30T07:31:15.426Z,96892.69
2023-04-30T07:32:17.037Z,96897.16
2023-04-30T07:33:18.602Z,96874.81
2023-04-30T07:34:20.026Z,96895.88
2023-04-30T07:35:21.422Z,96884.53
2023-04-30T07:36:23.116Z,96896.06
2023-04-30T07:37:24.576Z,96892.56
2023-04-30T07:38:26.021Z,96895.97
2023-04-30T07:39:27.647Z,96887.09
2023-04-30T07:41:36.137Z,96880.81
2023-04-30T07:42:37.557Z,96877.88
2023-04-30T07:43:42.472Z,96877.31
2023-04-30T07:44:43.958Z,96878.06
2023-04-30T07:45:45.539Z,96878.81
2023-04-30T07:46:47.309Z,96865.72
2023-04-30T07:47:48.825Z,96872.00
2023-04-30T07:48:50.436Z,96874.94
2023-04-30T07:49:51.972Z,96884.16
2023-04-30T07:50:53.596Z,96887.91
2023-04-30T07:51:54.985Z,96875.91
2023-04-30T07:52:56.350Z,96876.38
2023-04-30T07:53:57.740Z,96877.97
2023-04-30T07:54:59.243Z,96880.38
2023-04-30T07:56:00.604Z,96876.00
2023-04-30T07:57:03.338Z,96873.38
2023-04-30T07:58:04.834Z,96870.75
2023-04-30T07:59:06.401Z,96883.16
2023-04-30T08:00:08.395Z,96882.25
2023-04-30T08:01:09.881Z,96876.44
2023-04-30T08:02:11.289Z,96879.19
2023-04-30T08:03:12.849Z,96885.34
2023-04-30T08:04:14.545Z,96878.91
2023-04-30T08:05:15.930Z,96874.59
2023-04-30T08:06:20.291Z,96878.69
2023-04-30T08:07:22.304Z,96883.66
2023-04-30T08:08:23.724Z,96885.97
2023-04-30T08:09:25.132Z,96885.22
2023-04-30T08:10:26.742Z,96872.41
2023-04-30T08:11:28.092Z,96878.00
2023-04-30T08:12:29.571Z,96882.75
2023-04-30T08:13:31.933Z,96867.84
2023-04-30T08:14:33.377Z,96871.13
2023-04-30T08:15:37.649Z,96874.69
2023-04-30T08:16:39.221Z,96877.16
2023-04-30T08:17:40.690Z,96880.69
2023-04-30T08:18:44.830Z,96881.97
2023-04-30T08:19:46.172Z,96877.03
2023-04-30T08:20:48.592Z,96884.31
2023-04-30T08:21:50.145Z,96883.28
2023-04-30T08:22:51.896Z,96885.63
2023-04-30T08:23:53.659Z,96883.34
2023-04-30T08:24:55.703Z,96884.63
2023-04-30T08:25:57.172Z,96890.47
2023-04-30T08:27:00.499Z,96885.91
2023-04-30T08:28:02.028Z,96872.69
2023-04-30T08:29:03.452Z,96873.63
2023-04-30T08:30:07.332Z,96882.63
2023-04-30T08:31:08.742Z,96869.69
2023-04-30T08:32:10.275Z,96889.44
2023-04-30T08:33:11.855Z,96886.69
2023-04-30T08:34:13.314Z,96889.09
2023-04-30T08:35:16.847Z,96886.19
2023-04-30T08:36:18.327Z,96890.72
2023-04-30T08:37:19.906Z,96889.00
2023-04-30T08:38:21.266Z,96883.06
2023-04-30T08:39:22.691Z,96883.06
2023-04-30T08:40:38.306Z,96890.16
2023-04-30T08:41:48.776Z,96886.44
2023-04-30T08:43:07.703Z,96885.09
2023-04-30T08:44:11.213Z,96868.72
2023-04-30T08:45:16.290Z,96883.56
2023-04-30T08:46:18.202Z,96888.31
2023-04-30T08:47:20.823Z,96881.31
2023-04-30T08:48:24.756Z,96880.56
2023-04-30T08:49:28.170Z,96880.06
2023-04-30T08:50:29.787Z,96881.75
2023-04-30T08:51:33.094Z,96883.50
2023-04-30T08:52:35.861Z,96889.53
2023-04-30T08:53:40.675Z,96891.81
2023-04-30T08:54:44.219Z,96892.22
2023-04-30T08:55:46.730Z,96891.78
2023-04-30T08:56:48.149Z,96885.03
2023-04-30T08:57:49.619Z,96883.91
2023-04-30T08:58:51.140Z,96879.34
2023-04-30T08:59:53.661Z,96887.78
2023-04-30T09:00:58.482Z,96886.31
2023-04-30T09:02:01.826Z,96887.31
2023-04-30T09:03:03.622Z,96889.19
2023-04-30T09:04:05.878Z,96890.28
2023-04-30T09:05:14.980Z,96883.41
2023-04-30T09:06:17.429Z,96884.16
2023-04-30T09:07:19.706Z,96876.56
2023-04-30T09:08:47.886Z,96882.56
2023-04-30T09:09:53.476Z,96883.88
2023-04-30T09:10:55.050Z,96881.72
2023-04-30T09:12:15.202Z,96881.97
2023-04-30T09:13:17.654Z,96875.81
2023-04-30T09:14:25.652Z,96887.03
2023-04-30T09:15:27.454Z,96874.13
2023-04-30T09:16:46.017Z,96877.22
2023-04-30T09:17:48.583Z,96883.44
2023-04-30T09:18:50.879Z,96883.53
2023-04-30T09:19:53.436Z,96878.59
2023-04-30T09:21:02.975Z,96884.06
2023-04-30T09:22:21.283Z,96876.31
2023-04-30T09:23:22.777Z,96884.41
2023-04-30T09:24:25.291Z,96877.59
2023-04-30T09:25:39.410Z,96875.28
2023-04-30T09:26:40.743Z,96880.91
2023-04-30T09:27:43.665Z,96883.50
2023-04-30T09:28:56.765Z,96879.16
2023-04-30T09:29:58.332Z,96875.28
2023-04-30T09:30:59.712Z,96870.13
2023-04-30T09:32:08.891Z,96876.47
2023-04-30T09:33:12.248Z,96882.41
2023-04-30T09:34:14.306Z,96882.41
2023-04-30T09:35:32.278Z,96875.22
2023-04-30T09:36:34.476Z,96883.78
2023-04-30T09:37:37.463Z,96880.47
2023-04-30T09:38:39.473Z,96880.22
2023-04-30T09:39:51.806Z,96874.03
2023-04-30T09:40:53.201Z,96880.06
2023-04-30T09:42:07.412Z,96887.34
2023-04-30T09:43:09.316Z,96878.84
2023-04-30T09:44:30.451Z,96873.94
2023-04-30T09:45:48.278Z,96887.66
2023-04-30T09:46:50.923Z,96879.53
2023-04-30T09:47:55.672Z,96875.72
2023-04-30T09:49:02.960Z,96883.59
2023-04-30T09:50:06.394Z,96881.13
2023-04-30T09:51:08.002Z,96880.00
2023-04-30T09:52:09.725Z,96881.69
2023-04-30T09:53:14.186Z,96879.13
2023-04-30T09:54:17.953Z,96887.84
2023-04-30T09:55:21.765Z,96880.34
2023-04-30T09:56:26.685Z,96875.91
2023-04-30T09:57:32.289Z,96882.19
2023-04-30T09:58:40.987Z,96881.84
2023-04-30T09:59:46.916Z,96886.31
2023-04-30T10:00:51.434Z,96887.50
2023-04-30T10:01:53.698Z,96886.34
2023-04-30T10:02:55.975Z,96886.16
2023-04-30T10:03:58.162Z,96883.28
2023-04-30T10:05:00.925Z,96886.84
2023-04-30T10:06:03.682Z,96878.19
2023-04-30T10:07:14.824Z,96882.59
2023-04-30T10:08:31.553Z,96884.50
2023-04-30T10:09:41.216Z,96887.97
2023-04-30T10:10:46.844Z,96871.56
2023-04-30T10:11:50.172Z,96883.22
2023-04-30T10:12:56.338Z,96879.22
2023-04-30T10:14:03.691Z,96886.84
2023-04-30T10:15:15.027Z,96872.56
2023-04-30T10:16:34.676Z,96881.38
2023-04-30T10:17:44.303Z,96887.44
2023-04-30T10:18:49.925Z,96870.31
2023-04-30T10:19:55.378Z,96880.16
2023-04-30T10:20:57.628Z,96875.75
2023-04-30T10:21:59.528Z,96879.06
2023-04-30T10:23:01.412Z,96888.28
2023-04-30T10:24:03.690Z,96883.56
2023-04-30T10:25:05.695Z,96883.34
2023-04-30T10:26:08.526Z,96874.34
2023-04-30T10:27:10.075Z,96869.88
2023-04-30T10:28:11.640Z,96876.75
2023-04-30T10:29:15.240Z,96873.84
2023-04-30T10:30:17.166Z,96869.25
2023-04-30T10:31:20.560Z,96873.75
2023-04-30T10:32:24.231Z,96872.03
2023-04-30T10:33:31.759Z,96874.22
2023-04-30T10:34:35.755Z,96871.47
2023-04-30T10:35:56.857Z,96863.06
2023-04-30T10:37:04.121Z,96873.28
2023-04-30T10:38:26.840Z,96865.94
2023-04-30T10:39:29.073Z,96860.66
2023-04-30T10:40:36.982Z,96861.31
2023-04-30T10:41:38.939Z,96858.47
2023-04-30T10:42:49.516Z,96862.03
2023-04-30T10:43:51.265Z,96859.88
2023-04-30T10:44:52.811Z,96858.69
2023-04-30T10:45:54.221Z,96866.09
2023-04-30T10:47:00.737Z,96855.69
2023-04-30T10:48:03.431Z,96860.34
2023-04-30T10:49:05.426Z,96854.97
2023-04-30T10:50:10.541Z,96858.97
2023-04-30T10:51:11.929Z,96846.53
2023-04-30T10:52:13.324Z,96847.06
2023-04-30T10:53:18.375Z,96849.72
2023-04-30T10:54:29.201Z,96854.56
2023-04-30T10:55:31.541Z,96850.13
2023-04-30T10:56:33.488Z,96847.31
2023-04-30T10:57:43.086Z,96844.16
2023-04-30T10:58:45.391Z,96844.84
2023-04-30T11:00:17.055Z,96846.09
2023-04-30T11:01:18.606Z,96837.41
2023-04-30T11:02:20.312Z,96842.31
2023-04-30T11:03:22.274Z,96841.09
2023-04-30T11:04:24.351Z,96850.50
2023-04-30T11:05:46.479Z,96851.13
2023-04-30T11:06:57.346Z,96843.53
2023-04-30T11:07:58.829Z,96836.94
2023-04-30T11:09:03.909Z,96841.53
2023-04-30T11:10:08.489Z,96838.34
2023-04-30T11:11:11.086Z,96839.94
2023-04-30T11:12:28.247Z,96833.66
2023-04-30T11:13:30.373Z,96837.78
2023-04-30T11:14:34.084Z,96831.59
2023-04-30T11:15:41.577Z,96843.22
2023-04-30T11:16:43.167Z,96834.03
2023-04-30T11:17:47.936Z,96831.69
2023-04-30T11:18:51.467Z,96821.66
2023-04-30T11:19:54.303Z,96832.66
2023-04-30T11:20:57.561Z,96816.00
2023-04-30T11:22:05.095Z,96832.97
2023-04-30T11:23:11.073Z,96832.19
2023-04-30T11:24:13.086Z,96831.38
2023-04-30T11:25:19.797Z,96833.59
2023-04-30T11:26:21.200Z,96823.91
2023-04-30T11:27:26.119Z,96824.38
2023-04-30T11:28:28.653Z,96837.31
2023-04-30T11:29:31.640Z,96829.25
2023-04-30T11:30:34.785Z,96819.81
2023-04-30T11:31:36.405Z,96829.84
2023-04-30T11:32:38.984Z,96827.63
2023-04-30T11:33:41.360Z,96814.53
2023-04-30T11:34:46.804Z,96825.81
2023-04-30T11:35:52.756Z,96828.03
2023-04-30T11:36:58.980Z,96825.00
2023-04-30T11:38:01.716Z,96822.00
2023-04-30T11:39:06.216Z,96819.03
2023-04-30T11:40:11.306Z,96826.22
2023-04-30T11:41:12.877Z,96830.16
2023-04-30T11:42:19.627Z,96812.22
2023-04-30T11:43:25.167Z,96828.44
2023-04-30T11:44:27.070Z,96820.66
2023-04-30T11:45:28.641Z,96826.66
2023-04-30T11:46:30.103Z,96815.09
2023-04-30T11:47:45.893Z,96819.44
2023-04-30T11:48:47.467Z,96832.31
2023-04-30T11:49:51.492Z,96825.84
2023-04-30T11:50:52.874Z,96824.75
2023-04-30T11:51:54.236Z,96818.56
2023-04-30T11:52:57.817Z,96805.56
2023-04-30T11:53:59.753Z,96816.59
2023-04-30T11:55:01.258Z,96820.00
2023-04-30T11:56:03.746Z,96815.13
2023-04-30T11:57:06.299Z,96810.53
2023-04-30T11:58:09.581Z,96802.78
2023-04-30T11:59:11.275Z,96807.66
2023-04-30T12:00:27.753Z,96809.59
2023-04-30T12:01:29.219Z,96811.47
2023-04-30T12:02:30.652Z,96808.00
2023-04-30T12:03:32.601Z,96803.50
2023-04-30T12:04:34.182Z,96807.91
2023-04-30T12:05:35.795Z,96806.84
2023-04-30T12:06:37.191Z,96803.56
2023-04-30T12:07:39.126Z,96799.47
2023-04-30T12:08:41.550Z,96805.69
2023-04-30T12:09:56.661Z,96802.28
2023-04-30T12:10:58.491Z,96808.31
2023-04-30T12:12:00.037Z,96801.63
2023-04-30T12:13:02.002Z,96809.28
2023-04-30T12:14:05.323Z,96801.84
2023-04-30T12:15:14.586Z,96807.94
2023-04-30T12:16:16.132Z,96812.28
2023-04-30T12:17:31.571Z,96803.47
2023-04-30T12:18:33.119Z,96809.09
2023-04-30T12:19:34.490Z,96815.66
2023-04-30T12:20:36.203Z,96812.25
2023-04-30T12:21:38.689Z,96816.47
2023-04-30T12:22:41.067Z,96814.88
2023-04-30T12:23:42.518Z,96815.66
2023-04-30T12:24:43.928Z,96823.38
2023-04-30T12:25:45.555Z,96822.50
2023-04-30T12:26:47.950Z,96827.53
2023-04-30T12:27:51.922Z,96810.88
2023-04-30T12:28:55.714Z,96811.44
2023-04-30T12:29:57.435Z,96818.16
2023-04-30T12:30:59.654Z,96829.13
2023-04-30T12:32:01.309Z,96825.00
2023-04-30T12:33:03.658Z,96819.03
2023-04-30T12:34:06.864Z,96819.56
2023-04-30T12:35:09.398Z,96811.38
2023-04-30T12:36:11.318Z,96806.69
2023-04-30T12:37:16.724Z,96805.97
2023-04-30T12:38:18.576Z,96811.59
2023-04-30T12:39:19.986Z,96817.09
2023-04-30T12:40:26.774Z,96815.06
2023-04-30T12:41:29.920Z,96800.47
2023-04-30T12:42:35.720Z,96810.66
2023-04-30T12:43:37.355Z,96797.63
2023-04-30T12:44:44.617Z,96813.34
2023-04-30T12:45:51.819Z,96806.63
2023-04-30T12:46:56.598Z,96803.34
2023-04-30T12:47:58.053Z,96800.75
2023-04-30T12:49:00.589Z,96802.44
2023-04-30T12:50:02.984Z,96805.47
2023-04-30T12:51:05.153Z,96809.03
2023-04-30T12:52:10.009Z,96792.28
2023-04-30T12:53:11.594Z,96803.72
2023-04-30T12:54:13.067Z,96793.00
2023-04-30T12:55:19.675Z,96790.91
2023-04-30T12:56:22.337Z,96793.31
2023-04-30T12:57:23.789Z,96785.69
2023-04-30T12:58:30.866Z,96783.00
2023-04-30T13:00:00.347Z,96795.56
2023-04-30T13:01:01.918Z,96786.28
2023-04-30T13:02:28.198Z,96788.47
2023-04-30T13:03:29.877Z,96776.41
2023-04-30T13:04:31.336Z,96779.75
2023-04-30T13:05:32.759Z,96778.44
2023-04-30T13:06:35.149Z,96781.63
2023-04-30T13:07:39.658Z,96775.47
2023-04-30T13:08:57.026Z,96776.66
2023-04-30T13:09:59.094Z,96765.41
2023-04-30T13:11:00.455Z,96773.50
2023-04-30T13:12:02.193Z,96772.94
2023-04-30T13:13:03.590Z,96776.72
2023-04-30T13:14:04.947Z,96769.72
2023-04-30T13:15:06.925Z,96756.38
2023-04-30T13:16:08.694Z,96774.09
2023-04-30T13:17:12.476Z,96765.88
2023-04-30T13:18:15.761Z,96768.28
2023-04-30T13:19:17.330Z,96771.16
2023-04-30T13:20:18.790Z,96759.84
2023-04-30T13:21:21.061Z,96766.59
2023-04-30T13:22:23.819Z,96762.09
2023-04-30T13:23:25.231Z,96769.44
2023-04-30T13:24:26.666Z,96759.91
2023-04-30T13:25:28.242Z,96770.69
2023-04-30T13:26:29.988Z,96771.41
2023-04-30T13:27:31.315Z,96770.22
2023-04-30T13:28:32.649Z,96768.56
2023-04-30T13:29:34.059Z,96776.44
2023-04-30T13:30:36.463Z,96769.03
2023-04-30T13:31:37.985Z,96759.69
2023-04-30T13:32:39.628Z,96763.88
2023-04-30T13:33:41.511Z,96766.75
2023-04-30T13:34:42.911Z,96773.13
2023-04-30T13:35:46.494Z,96764.03
2023-04-30T13:36:48.708Z,96767.63
2023-04-30T13:37:52.567Z,96764.66
2023-04-30T13:38:54.180Z,96774.06
2023-04-30T13:39:55.725Z,96760.22
2023-04-30T13:41:02.908Z,96755.69
2023-04-30T13:42:04.516Z,96767.16
2023-04-30T13:43:05.879Z,96756.38
2023-04-30T13:44:07.260Z,96765.47
2023-04-30T13:45:09.476Z,96762.06
2023-04-30T13:46:11.235Z,96752.50
2023-04-30T13:47:12.802Z,96754.31
2023-04-30T13:48:14.208Z,96761.56
2023-04-30T13:49:15.984Z,96749.63
2023-04-30T13:50:17.379Z,96745.91
2023-04-30T13:51:19.671Z,96755.03
2023-04-30T13:52:21.004Z,96760.09
2023-04-30T13:53:22.689Z,96760.19
2023-04-30T13:54:24.087Z,96760.06
2023-04-30T13:55:25.549Z,96754.25
2023-04-30T13:56:26.963Z,96761.41
2023-04-30T13:57:30.033Z,96744.78
2023-04-30T13:58:31.465Z,96750.25
2023-04-30T13:59:33.359Z,96729.09
2023-04-30T14:00:34.864Z,96748.50
2023-04-30T14:01:36.432Z,96746.16
2023-04-30T14:02:37.979Z,96734.38
2023-04-30T14:03:39.498Z,96750.06
2023-04-30T14:04:43.086Z,96732.28
2023-04-30T14:05:50.437Z,96746.06
2023-04-30T14:06:52.845Z,96746.16
2023-04-30T14:07:54.269Z,96746.78
2023-04-30T14:08:55.602Z,96735.59
2023-04-30T14:09:57.209Z,96737.50
2023-04-30T14:10:58.784Z,96752.03
2023-04-30T14:12:00.168Z,96733.69
2023-04-30T14:13:01.523Z,96750.16
2023-04-30T14:14:03.330Z,96737.38
2023-04-30T14:15:05.896Z,96735.13
2023-04-30T14:16:07.839Z,96748.56
2023-04-30T14:17:09.308Z,96740.94
2023-04-30T14:18:10.846Z,96742.84
2023-04-30T14:19:12.289Z,96735.69
2023-04-30T14:20:14.015Z,96746.50
2023-04-30T14:21:15.476Z,96732.34
2023-04-30T14:22:16.918Z,96728.09
2023-04-30T14:23:18.497Z,96740.97
2023-04-30T14:24:20.203Z,96732.03
2023-04-30T14:25:21.628Z,96728.13
2023-04-30T14:26:23.019Z,96735.50
2023-04-30T14:27:25.391Z,96735.50
2023-04-30T14:28:26.744Z,96732.75
2023-04-30T14:29:28.082Z,96733.91
2023-04-30T14:30:29.502Z,96713.94
2023-04-30T14:31:31.023Z,96726.44
2023-04-30T14:32:32.565Z,96726.06
2023-04-30T14:33:34.003Z,96728.59
2023-04-30T14:34:35.429Z,96727.81
2023-04-30T14:35:37.359Z,96722.00
2023-04-30T14:36:38.903Z,96710.59
2023-04-30T14:37:40.222Z,96722.16
2023-04-30T14:38:41.822Z,96719.31
2023-04-30T14:39:44.016Z,96715.84
2023-04-30T14:40:45.439Z,96714.69
2023-04-30T14:41:46.870Z,96707.41
2023-04-30T14:42:50.612Z,96725.78
2023-04-30T14:43:52.747Z,96711.19
2023-04-30T14:44:54.528Z,96702.44
2023-04-30T14:45:56.386Z,96692.50
2023-04-30T14:46:58.149Z,96701.31
2023-04-30T14:47:59.758Z,96710.44
2023-04-30T14:49:01.345Z,96713.31
2023-04-30T14:50:02.890Z,96705.03
2023-04-30T14:51:04.721Z,96689.00
2023-04-30T14:52:06.466Z,96697.38
2023-04-30T14:53:09.343Z,96703.88
2023-04-30T14:54:10.955Z,96706.31
2023-04-30T14:55:12.461Z,96692.91
2023-04-30T14:56:13.904Z,96701.38
2023-04-30T14:57:15.408Z,96700.59
2023-04-30T14:58:16.933Z,96703.97
2023-04-30T14:59:18.357Z,96698.44
2023-04-30T15:00:19.731Z,96705.50
2023-04-30T15:01:21.315Z,96691.44
2023-04-30T15:02:22.828Z,96688.56
2023-04-30T15:03:24.349Z,96693.44
2023-04-30T15:04:25.742Z,96691.09
2023-04-30T15:05:28.358Z,96695.03
2023-04-30T15:06:30.123Z,96690.88
2023-04-30T15:07:31.634Z,96693.75
2023-04-30T15:08:32.960Z,96694.63
2023-04-30T15:09:34.475Z,96692.31
2023-04-30T15:10:36.057Z,96689.81
2023-04-30T15:11:37.534Z,96691.56
2023-04-30T15:12:39.681Z,96690.69
2023-04-30T15:13:41.498Z,96689.38
2023-04-30T15:14:43.040Z,96660.84
2023-04-30T15:15:46.928Z,96689.81
2023-04-30T15:16:48.471Z,96682.56
2023-04-30T15:17:49.926Z,96690.59
2023-04-30T15:18:51.297Z,96695.84
2023-04-30T15:19:53.453Z,96694.06
2023-04-30T15:20:55.488Z,96691.19
2023-04-30T15:21:56.879Z,96693.28
2023-04-30T15:22:58.412Z,96688.66
2023-04-30T15:23:59.769Z,96685.44
2023-04-30T15:25:01.140Z,96694.63
2023-04-30T15:26:04.311Z,96691.41
2023-04-30T15:27:05.716Z,96697.41
2023-04-30T15:28:07.121Z,96694.19
2023-04-30T15:29:09.778Z,96699.06
2023-04-30T15:30:11.404Z,96697.50
2023-04-30T15:31:12.947Z,96688.63
2023-04-30T15:32:14.733Z,96691.72
2023-04-30T15:33:16.263Z,96688.44
2023-04-30T15:34:17.971Z,96686.44
2023-04-30T15:35:19.341Z,96692.97
2023-04-30T15:36:23.177Z,96680.50
2023-04-30T15:37:24.557Z,96687.53
2023-04-30T15:38:26.087Z,96694.09
2023-04-30T15:39:27.620Z,96687.22
2023-04-30T15:40:29.069Z,96682.22
2023-04-30T15:41:30.467Z,96687.25
2023-04-30T15:42:31.871Z,96694.22
2023-04-30T15:43:34.124Z,96689.16
2023-04-30T15:44:35.580Z,96691.13
2023-04-30T15:45:37.090Z,96679.47
2023-04-30T15:46:38.533Z,96684.63
2023-04-30T15:47:41.160Z,96671.78
2023-04-30T15:48:42.620Z,96680.50
2023-04-30T15:49:44.026Z,96673.66
2023-04-30T15:50:45.441Z,96682.66
2023-04-30T15:51:46.834Z,96681.66
2023-04-30T15:52:48.251Z,96674.16
2023-04-30T15:53:49.622Z,96672.84
2023-04-30T15:54:51.244Z,96678.00
2023-04-30T15:55:53.268Z,96662.50
2023-04-30T15:56:54.704Z,96670.28
2023-04-30T15:57:56.082Z,96673.34
2023-04-30T15:58:57.509Z,96674.66
2023-04-30T15:59:59.122Z,96665.03
2023-04-30T16:01:01.899Z,96674.84
2023-04-30T16:02:03.378Z,96674.81
2023-04-30T16:03:04.963Z,96663.53
2023-04-30T16:04:06.840Z,96672.94
2023-04-30T16:05:08.926Z,96673.75
2023-04-30T16:06:10.398Z,96666.56
2023-04-30T16:07:12.109Z,96676.28
2023-04-30T16:08:13.661Z,96670.41
2023-04-30T16:09:19.476Z,96671.25
2023-04-30T16:10:21.497Z,96671.34
2023-04-30T16:11:24.023Z,96667.53
2023-04-30T16:12:26.675Z,96669.91
2023-04-30T16:13:28.048Z,96665.28
2023-04-30T16:14:29.447Z,96661.34
2023-04-30T16:15:31.011Z,96664.38
2023-04-30T16:16:32.495Z,96664.06
2023-04-30T16:17:33.922Z,96663.13
2023-04-30T16:18:35.462Z,96650.56
2023-04-30T16:19:36.878Z,96654.50
2023-04-30T16:20:41.416Z,96663.44
2023-04-30T16:21:43.529Z,96648.38
2023-04-30T16:22:45.061Z,96655.84
2023-04-30T16:23:49.068Z,96655.84
2023-04-30T16:24:50.612Z,96642.78
2023-04-30T16:25:52.022Z,96649.22
2023-04-30T16:26:53.701Z,96651.78
2023-04-30T16:27:55.165Z,96646.56
2023-04-30T16:28:56.656Z,96645.84
2023-04-30T16:29:58.319Z,96655.53
2023-04-30T16:31:00.618Z,96657.53
2023-04-30T16:32:02.186Z,96646.47
2023-04-30T16:33:03.681Z,96649.75
2023-04-30T16:34:05.119Z,96648.25
2023-04-30T16:35:07.340Z,96651.63
2023-04-30T16:36:09.944Z,96635.59
2023-04-30T16:37:11.496Z,96654.25
2023-04-30T16:38:13.071Z,96644.63
2023-04-30T16:39:17.010Z,96638.22
2023-04-30T16:40:18.726Z,96637.03
2023-04-30T16:41:21.465Z,96635.88
2023-04-30T16:42:23.043Z,96645.19
2023-04-30T16:43:24.457Z,96632.53
2023-04-30T16:44:25.945Z,96639.94
2023-04-30T16:45:28.924Z,96638.25
2023-04-30T16:46:30.485Z,96636.06
2023-04-30T16:47:32.217Z,96622.53
2023-04-30T16:48:33.608Z,96638.25
2023-04-30T16:49:34.987Z,96634.22
2023-04-30T16:50:36.481Z,96639.00
2023-04-30T16:51:37.912Z,96621.75
2023-04-30T16:52:39.354Z,96638.16
2023-04-30T16:53:40.763Z,96621.22
2023-04-30T16:54:42.144Z,96626.63
2023-04-30T16:55:43.749Z,96631.69
2023-04-30T16:56:45.370Z,96631.50
2023-04-30T16:57:46.890Z,96633.38
2023-04-30T16:58:48.307Z,96636.22
2023-04-30T16:59:49.747Z,96637.78
2023-04-30T17:00:56.015Z,96630.41
2023-04-30T17:02:00.371Z,96641.16
2023-04-30T17:03:02.312Z,96629.22
2023-04-30T17:04:04.292Z,96627.81
2023-04-30T17:05:06.162Z,96633.81
2023-04-30T17:06:08.118Z,96637.09
2023-04-30T17:07:09.554Z,96632.97
2023-04-30T17:08:10.973Z,96623.78
2023-04-30T17:09:12.354Z,96625.50
